createdAt,value
2017-11-16T00:02:14.091Z,22.97
2017-11-16T00:04:40.453Z,24.00
2017-11-16T00:07:06.813Z,20.90
2017-11-16T00:09:33.202Z,22.50
2017-11-16T00:11:59.537Z,21.67
2017-11-16T00:14:25.950Z,23.60
2017-11-16T00:16:52.345Z,23.50
2017-11-16T00:19:18.702Z,25.07
2017-11-16T00:21:45.028Z,21.03
2017-11-16T00:24:11.414Z,24.50
2017-11-16T00:26:37.808Z,22.63
2017-11-16T00:29:04.138Z,23.17
2017-11-16T00:31:30.501Z,26.63
2017-11-16T00:33:56.842Z,27.17
2017-11-16T00:36:23.186Z,28.03
2017-11-16T00:38:49.563Z,22.83
2017-11-16T00:41:15.998Z,21.80
2017-11-16T00:43:42.548Z,26.10
2017-11-16T00:46:08.956Z,22.93
2017-11-16T00:48:35.401Z,24.30
2017-11-16T00:51:01.732Z,24.47
2017-11-16T00:53:28.166Z,22.23
2017-11-16T00:55:54.514Z,22.70
2017-11-16T00:58:20.857Z,23.73
2017-11-16T01:00:47.233Z,22.57
2017-11-16T01:03:13.609Z,22.47
2017-11-16T01:05:39.948Z,24.03
2017-11-16T01:08:06.365Z,24.53
2017-11-16T01:10:32.718Z,20.33
2017-11-16T01:12:59.089Z,18.83
2017-11-16T01:15:25.604Z,20.77
2017-11-16T01:17:51.973Z,17.60
2017-11-16T01:20:18.423Z,20.23
2017-11-16T01:22:44.824Z,19.73
2017-11-16T01:25:11.286Z,19.30
2017-11-16T01:27:37.653Z,20.87
2017-11-16T01:30:04.026Z,20.10
2017-11-16T01:32:30.400Z,15.23
2017-11-16T01:34:56.753Z,20.30
2017-11-16T01:37:23.369Z,23.50
2017-11-16T01:39:49.713Z,20.67
2017-11-16T01:42:16.141Z,20.63
2017-11-16T01:44:42.564Z,19.27
2017-11-16T01:47:08.957Z,22.63
2017-11-16T01:49:35.337Z,17.30
2017-11-16T01:52:01.698Z,20.00
2017-11-16T01:54:28.078Z,22.10
2017-11-16T01:56:54.425Z,20.50
2017-11-16T01:59:20.868Z,21.73
2017-11-16T02:01:47.254Z,19.67
2017-11-16T02:04:13.706Z,24.97
2017-11-16T02:06:40.120Z,19.60
2017-11-16T02:09:06.452Z,21.80
2017-11-16T02:11:32.790Z,14.67
2017-11-16T02:13:59.236Z,20.07
2017-11-16T02:16:25.575Z,18.80
2017-11-16T02:18:51.923Z,14.47
2017-11-16T02:21:18.434Z,16.87
2017-11-16T02:23:44.797Z,18.23
2017-11-16T02:26:11.179Z,19.70
2017-11-16T02:28:37.633Z,16.77
2017-11-16T02:31:03.988Z,18.00
2017-11-16T02:33:30.394Z,19.33
2017-11-16T02:35:56.805Z,18.87
2017-11-16T02:38:23.260Z,19.60
2017-11-16T02:40:49.642Z,19.13
2017-11-16T02:43:16.047Z,16.97
2017-11-16T02:45:42.429Z,16.87
2017-11-16T02:48:08.826Z,21.33
2017-11-16T02:50:35.325Z,17.33
2017-11-16T02:53:01.716Z,25.43
2017-11-16T02:55:28.118Z,16.23
2017-11-16T02:57:54.585Z,16.43
2017-11-16T03:00:20.941Z,16.77
2017-11-16T03:02:47.342Z,17.40
2017-11-16T03:05:13.769Z,14.67
2017-11-16T03:07:40.237Z,13.07
2017-11-16T03:10:06.602Z,14.27
2017-11-16T03:12:33.070Z,14.50
2017-11-16T03:14:59.413Z,16.13
2017-11-16T03:17:25.778Z,15.67
2017-11-16T03:19:52.172Z,15.10
2017-11-16T03:22:18.541Z,18.70
2017-11-16T03:24:44.857Z,13.77
2017-11-16T03:27:11.317Z,17.40
2017-11-16T03:29:37.724Z,14.00
2017-11-16T03:32:04.073Z,12.90
2017-11-16T03:34:30.484Z,16.70
2017-11-16T03:36:56.840Z,13.97
2017-11-16T03:39:23.234Z,13.93
2017-11-16T03:41:49.626Z,13.53
2017-11-16T03:44:15.985Z,15.80
2017-11-16T03:46:42.496Z,16.63
2017-11-16T03:49:08.885Z,13.70
2017-11-16T03:51:35.278Z,13.53
2017-11-16T03:54:01.666Z,14.20
2017-11-16T03:56:28.049Z,12.10
2017-11-16T03:58:54.404Z,11.93
2017-11-16T04:01:20.721Z,13.07
2017-11-16T04:03:47.094Z,13.00
2017-11-16T04:06:13.475Z,13.17
2017-11-16T04:08:39.942Z,18.47
2017-11-16T04:11:06.393Z,15.40
2017-11-16T04:13:32.748Z,11.97
2017-11-16T04:15:59.089Z,12.57
2017-11-16T04:18:25.510Z,12.33
2017-11-16T04:20:51.881Z,14.10
2017-11-16T04:23:18.224Z,12.37
2017-11-16T04:25:44.687Z,11.13
2017-11-16T04:28:11.104Z,12.20
2017-11-16T04:30:37.579Z,11.70
2017-11-16T04:33:03.988Z,13.00
2017-11-16T04:35:30.354Z,11.87
2017-11-16T04:37:56.876Z,9.77
2017-11-16T04:40:23.270Z,12.47
2017-11-16T04:42:49.598Z,10.73
2017-11-16T04:45:15.933Z,9.23
2017-11-16T04:47:42.285Z,11.30
2017-11-16T04:50:08.626Z,10.43
2017-11-16T04:52:35.043Z,10.40
2017-11-16T04:55:01.458Z,9.60
2017-11-16T04:57:27.856Z,11.40
2017-11-16T04:59:54.218Z,10.23
2017-11-16T05:02:20.775Z,12.03
2017-11-16T05:04:47.152Z,10.33
2017-11-16T05:07:13.521Z,10.53
2017-11-16T05:09:40.893Z,9.07
2017-11-16T05:12:07.431Z,8.47
2017-11-16T05:14:33.858Z,9.13
2017-11-16T05:17:00.245Z,11.83
2017-11-16T05:19:26.600Z,14.07
2017-11-16T05:21:53.065Z,13.43
2017-11-16T05:24:19.462Z,10.00
2017-11-16T05:26:45.825Z,14.73
2017-11-16T05:29:12.177Z,16.80
2017-11-16T05:31:38.589Z,17.97
2017-11-16T05:34:04.921Z,18.27
2017-11-16T05:36:31.258Z,22.33
2017-11-16T05:38:57.637Z,21.97
2017-11-16T05:41:23.978Z,22.03
2017-11-16T05:43:50.293Z,25.80
2017-11-16T05:46:16.689Z,24.97
2017-11-16T05:48:43.044Z,23.47
2017-11-16T05:51:09.381Z,22.37
2017-11-16T05:53:35.809Z,22.93
2017-11-16T05:56:02.201Z,25.53
2017-11-16T05:58:28.567Z,23.57
2017-11-16T06:00:55.076Z,22.73
2017-11-16T06:03:21.557Z,14.23
2017-11-16T06:05:48.044Z,23.60
2017-11-16T06:08:14.453Z,22.13
2017-11-16T06:10:40.857Z,20.23
2017-11-16T06:13:07.341Z,16.57
2017-11-16T06:15:33.775Z,21.23
2017-11-16T06:18:00.120Z,17.77
2017-11-16T06:20:26.480Z,21.17
2017-11-16T06:22:52.878Z,22.90
2017-11-16T06:25:19.218Z,19.23
2017-11-16T06:27:45.558Z,18.93
2017-11-16T06:30:11.978Z,21.03
2017-11-16T06:32:38.555Z,14.63
2017-11-16T06:35:05.018Z,12.50
2017-11-16T06:37:31.450Z,14.17
2017-11-16T06:39:57.825Z,14.43
2017-11-16T06:42:24.257Z,12.63
2017-11-16T06:44:50.633Z,9.70
2017-11-16T06:47:17.118Z,12.80
2017-11-16T06:49:43.449Z,11.67
2017-11-16T06:52:10.068Z,12.73
2017-11-16T06:54:36.453Z,13.67
2017-11-16T06:57:02.913Z,19.90
2017-11-16T06:59:29.293Z,11.50
2017-11-16T07:01:55.731Z,16.10
2017-11-16T07:04:22.090Z,15.97
2017-11-16T07:06:48.487Z,13.93
2017-11-16T07:09:14.899Z,16.10
2017-11-16T07:11:41.214Z,15.20
2017-11-16T07:14:07.614Z,15.07
2017-11-16T07:16:33.992Z,14.53
2017-11-16T07:19:00.365Z,15.17
2017-11-16T07:21:26.729Z,13.73
2017-11-16T07:23:53.056Z,15.67
2017-11-16T07:26:19.394Z,16.87
2017-11-16T07:28:45.784Z,15.93
2017-11-16T07:31:12.286Z,20.43
2017-11-16T07:33:38.620Z,17.70
2017-11-16T07:36:05.030Z,16.77
2017-11-16T07:38:31.379Z,15.73
2017-11-16T07:40:57.774Z,16.90
2017-11-16T07:43:24.174Z,19.17
2017-11-16T07:45:50.516Z,16.20
2017-11-16T07:48:16.882Z,15.80
2017-11-16T07:50:43.311Z,12.63
2017-11-16T07:53:09.702Z,16.37
2017-11-16T07:55:36.057Z,15.23
2017-11-16T07:58:02.546Z,21.77
2017-11-16T08:00:28.869Z,16.90
2017-11-16T08:02:55.201Z,13.10
2017-11-16T08:05:21.561Z,18.53
2017-11-16T08:07:47.888Z,15.90
2017-11-16T08:10:14.638Z,17.00
2017-11-16T08:12:41.078Z,18.07
2017-11-16T08:15:07.432Z,12.77
2017-11-16T08:17:33.774Z,16.40
2017-11-16T08:20:00.180Z,14.60
2017-11-16T08:22:26.640Z,12.00
2017-11-16T08:24:52.981Z,12.40
2017-11-16T08:27:19.408Z,9.43
2017-11-16T08:29:45.765Z,15.20
2017-11-16T08:32:12.140Z,19.80
2017-11-16T08:34:38.609Z,19.60
2017-11-16T08:37:04.937Z,13.47
2017-11-16T08:39:31.305Z,14.90
2017-11-16T08:41:57.696Z,19.93
2017-11-16T08:44:24.040Z,13.93
2017-11-16T08:46:50.489Z,20.80
2017-11-16T08:49:16.967Z,16.63
2017-11-16T08:51:43.828Z,15.03
2017-11-16T08:54:10.236Z,14.60
2017-11-16T08:56:36.654Z,15.87
2017-11-16T08:59:03.034Z,18.07
2017-11-16T09:01:29.433Z,21.73
2017-11-16T09:03:55.932Z,15.20
2017-11-16T09:06:22.306Z,17.33
2017-11-16T09:08:48.697Z,12.00
2017-11-16T09:11:15.215Z,13.47
2017-11-16T09:13:41.589Z,11.93
2017-11-16T09:16:07.974Z,12.10
2017-11-16T09:18:34.401Z,14.50
2017-11-16T09:21:00.787Z,11.33
2017-11-16T09:23:27.175Z,12.57
2017-11-16T09:25:53.601Z,16.13
2017-11-16T09:28:20.159Z,19.87
2017-11-16T09:30:46.617Z,19.70
2017-11-16T09:33:13.129Z,24.57
2017-11-16T09:35:39.559Z,23.67
2017-11-16T09:38:05.922Z,20.20
2017-11-16T09:40:32.289Z,21.57
2017-11-16T09:42:58.626Z,28.00
2017-11-16T09:45:25.010Z,22.50
2017-11-16T09:47:51.526Z,24.90
2017-11-16T09:50:17.925Z,28.80
2017-11-16T09:52:44.335Z,19.23
2017-11-16T09:55:10.749Z,27.63
2017-11-16T09:57:37.117Z,26.40
2017-11-16T10:00:03.453Z,31.87
2017-11-16T10:02:29.859Z,20.13
2017-11-16T10:04:56.205Z,23.90
2017-11-16T10:07:22.666Z,36.03
2017-11-16T10:09:49.073Z,34.20
2017-11-16T10:12:15.532Z,39.17
2017-11-16T10:14:41.918Z,38.13
2017-11-16T10:17:08.355Z,32.63
2017-11-16T10:19:34.714Z,29.80
2017-11-16T10:22:01.163Z,26.93
2017-11-16T10:24:27.641Z,31.37
2017-11-16T10:26:54.051Z,28.47
2017-11-16T10:29:20.621Z,19.73
2017-11-16T10:31:47.119Z,21.27
2017-11-16T10:34:13.465Z,37.03
2017-11-16T10:36:39.837Z,29.90
2017-11-16T10:39:06.242Z,21.50
2017-11-16T10:41:32.620Z,14.63
2017-11-16T10:43:59.042Z,17.27
2017-11-16T10:46:25.441Z,18.03
2017-11-16T10:48:51.794Z,19.47
2017-11-16T10:51:18.146Z,18.23
2017-11-16T10:53:44.593Z,16.60
2017-11-16T10:56:10.957Z,17.67
2017-11-16T10:58:37.306Z,17.40
2017-11-16T11:01:03.808Z,20.67
2017-11-16T11:03:30.388Z,19.40
2017-11-16T11:05:56.752Z,20.93
2017-11-16T11:08:23.176Z,19.03
2017-11-16T11:10:49.514Z,20.27
2017-11-16T11:13:15.916Z,17.90
2017-11-16T11:15:42.322Z,14.93
2017-11-16T11:18:08.678Z,14.30
2017-11-16T11:20:35.119Z,18.50
2017-11-16T11:23:01.514Z,17.77
2017-11-16T11:25:27.859Z,15.23
2017-11-16T11:27:54.285Z,16.33
2017-11-16T11:30:20.667Z,15.10
2017-11-16T11:32:47.176Z,13.03
2017-11-16T11:35:13.546Z,17.37
2017-11-16T11:37:40.419Z,14.07
2017-11-16T11:40:06.868Z,19.13
2017-11-16T11:42:33.287Z,16.30
2017-11-16T11:44:59.749Z,14.10
2017-11-16T11:47:26.077Z,20.00
2017-11-16T11:49:52.474Z,20.40
2017-11-16T11:52:18.969Z,26.53
2017-11-16T11:54:45.305Z,27.83
2017-11-16T11:57:11.773Z,22.83
2017-11-16T11:59:38.173Z,20.17
2017-11-16T12:02:04.498Z,17.90
2017-11-16T12:04:30.877Z,17.13
2017-11-16T12:06:57.350Z,17.60
2017-11-16T12:09:23.882Z,17.20
2017-11-16T12:11:50.250Z,17.13
2017-11-16T12:14:16.643Z,18.30
2017-11-16T12:16:43.009Z,16.67
2017-11-16T12:19:09.397Z,17.40
2017-11-16T12:21:35.785Z,19.90
2017-11-16T12:24:02.118Z,19.07
2017-11-16T12:26:29.388Z,19.57
2017-11-16T12:28:55.814Z,18.37
2017-11-16T12:31:22.290Z,23.77
2017-11-16T12:33:48.758Z,17.33
2017-11-16T12:36:15.166Z,21.57
2017-11-16T12:38:41.633Z,28.63
2017-11-16T12:41:07.970Z,13.90
2017-11-16T12:43:34.361Z,19.80
2017-11-16T12:46:00.827Z,20.43
2017-11-16T12:48:27.394Z,17.83
2017-11-16T12:50:53.766Z,12.87
2017-11-16T12:53:20.121Z,18.50
2017-11-16T12:55:46.478Z,25.20
2017-11-16T12:58:12.949Z,23.73
2017-11-16T13:00:39.319Z,15.77
2017-11-16T13:03:05.784Z,19.67
2017-11-16T13:05:32.143Z,16.37
2017-11-16T13:07:58.577Z,21.33
2017-11-16T13:10:24.914Z,19.47
2017-11-16T13:12:51.322Z,18.57
2017-11-16T13:15:17.669Z,16.30
2017-11-16T13:17:44.058Z,23.70
2017-11-16T13:20:10.422Z,19.90
2017-11-16T13:22:36.809Z,21.73
2017-11-16T13:25:03.269Z,15.23
2017-11-16T13:27:29.757Z,16.90
2017-11-16T13:29:56.110Z,23.07
2017-11-16T13:32:22.473Z,16.37
2017-11-16T13:34:48.846Z,21.10
2017-11-16T13:37:15.185Z,13.60
2017-11-16T13:39:41.538Z,19.60
2017-11-16T13:42:07.943Z,15.60
2017-11-16T13:44:34.301Z,18.60
2017-11-16T13:47:00.655Z,18.27
2017-11-16T13:49:27.073Z,17.47
2017-11-16T13:51:53.415Z,18.73
2017-11-16T13:54:19.803Z,47.07
2017-11-16T13:56:46.721Z,18.27
2017-11-16T13:59:13.336Z,21.83
2017-11-16T14:01:39.663Z,24.97
2017-11-16T14:04:06.057Z,20.17
2017-11-16T14:06:32.709Z,22.43
2017-11-16T14:08:59.097Z,22.43
2017-11-16T14:11:25.477Z,27.87
2017-11-16T14:13:51.857Z,19.20
2017-11-16T14:16:18.201Z,26.67
2017-11-16T14:18:44.570Z,24.97
2017-11-16T14:21:10.926Z,28.00
2017-11-16T14:23:37.298Z,19.43
2017-11-16T14:26:04.262Z,25.93
2017-11-16T14:28:30.597Z,19.53
2017-11-16T14:30:56.934Z,23.30
2017-11-16T14:33:23.297Z,19.17
2017-11-16T14:35:49.629Z,19.77
2017-11-16T14:38:15.990Z,19.13
2017-11-16T14:40:42.521Z,20.60
2017-11-16T14:43:08.865Z,21.77
2017-11-16T14:45:35.258Z,20.93
2017-11-16T14:48:01.903Z,21.87
2017-11-16T14:50:28.333Z,20.63
2017-11-16T14:52:54.717Z,27.20
2017-11-16T14:55:21.146Z,27.43
2017-11-16T14:57:47.479Z,25.37
2017-11-16T15:00:13.890Z,24.67
2017-11-16T15:02:40.396Z,36.13
2017-11-16T15:05:06.724Z,32.90
2017-11-16T15:07:33.365Z,24.97
2017-11-16T15:09:59.766Z,25.67
2017-11-16T15:12:26.127Z,23.03
2017-11-16T15:14:52.513Z,26.83
2017-11-16T15:17:18.877Z,22.30
2017-11-16T15:19:45.234Z,25.17
2017-11-16T15:22:11.572Z,20.70
2017-11-16T15:24:37.938Z,24.23
2017-11-16T15:27:04.268Z,22.57
2017-11-16T15:29:30.751Z,27.37
2017-11-16T15:31:57.165Z,23.50
2017-11-16T15:34:23.824Z,28.70
2017-11-16T15:36:50.230Z,26.07
2017-11-16T15:39:16.662Z,27.77
2017-11-16T15:41:43.226Z,28.10
2017-11-16T15:44:09.730Z,24.20
2017-11-16T15:46:38.192Z,28.67
2017-11-16T15:49:04.880Z,32.13
2017-11-16T15:51:31.219Z,33.10
2017-11-16T15:53:57.594Z,39.93
2017-11-16T15:56:23.950Z,32.33
2017-11-16T15:58:50.362Z,26.73
2017-11-16T16:01:16.747Z,31.33
2017-11-16T16:03:43.087Z,36.60
2017-11-16T16:06:09.450Z,35.93
2017-11-16T16:08:35.937Z,31.53
2017-11-16T16:11:02.287Z,32.17
2017-11-16T16:13:28.702Z,33.93
2017-11-16T16:15:55.083Z,32.53
2017-11-16T16:18:21.418Z,32.07
2017-11-16T16:20:47.753Z,25.43
2017-11-16T16:23:14.330Z,28.07
2017-11-16T16:25:41.561Z,26.73
2017-11-16T16:28:07.898Z,22.77
2017-11-16T16:30:34.284Z,52.93
2017-11-16T16:33:00.688Z,62.00
2017-11-16T16:35:27.089Z,45.67
2017-11-16T16:37:54.343Z,40.53
2017-11-16T16:40:20.979Z,34.43
2017-11-16T16:42:47.343Z,31.10
2017-11-16T16:45:13.877Z,26.93
2017-11-16T16:47:40.355Z,29.97
2017-11-16T16:50:06.840Z,27.87
2017-11-16T16:52:33.280Z,28.70
2017-11-16T16:54:59.674Z,32.03
2017-11-16T16:57:26.047Z,28.80
2017-11-16T16:59:52.468Z,31.17
2017-11-16T17:02:18.823Z,30.73
2017-11-16T17:04:45.202Z,38.13
2017-11-16T17:07:11.598Z,33.97
2017-11-16T17:09:38.241Z,36.33
2017-11-16T17:12:06.833Z,29.07
2017-11-16T17:14:33.581Z,32.60
2017-11-16T17:16:59.955Z,36.80
2017-11-16T17:19:26.341Z,42.40
2017-11-16T17:21:53.502Z,41.67
2017-11-16T17:24:19.878Z,36.13
2017-11-16T17:26:46.926Z,34.27
2017-11-16T17:29:13.317Z,35.73
2017-11-16T17:31:39.686Z,33.97
2017-11-16T17:34:06.893Z,34.80
2017-11-16T17:36:33.350Z,31.77
2017-11-16T17:39:00.229Z,35.67
2017-11-16T17:41:26.702Z,33.60
2017-11-16T17:43:53.122Z,29.57
2017-11-16T17:46:20.037Z,31.83
2017-11-16T17:48:48.324Z,32.70
2017-11-16T17:51:15.556Z,27.60
2017-11-16T17:53:42.762Z,28.57
2017-11-16T17:56:11.654Z,29.00
2017-11-16T17:58:38.413Z,32.20
2017-11-16T18:01:04.844Z,30.03
2017-11-16T18:03:31.226Z,33.53
2017-11-16T18:05:57.739Z,39.47
2017-11-16T18:08:24.098Z,30.73
2017-11-16T18:10:51.119Z,44.27
2017-11-16T18:13:17.562Z,40.97
2017-11-16T18:15:45.547Z,33.80
2017-11-16T18:18:11.995Z,34.97
2017-11-16T18:20:38.416Z,34.57
2017-11-16T18:23:05.866Z,29.33
2017-11-16T18:25:32.298Z,33.90
2017-11-16T18:27:59.605Z,30.03
2017-11-16T18:30:29.805Z,29.97
2017-11-16T18:32:57.210Z,32.23
2017-11-16T18:35:31.522Z,31.90
2017-11-16T18:38:01.082Z,35.97
2017-11-16T18:40:27.446Z,38.87
2017-11-16T18:42:53.850Z,39.27
2017-11-16T18:45:20.287Z,32.87
2017-11-16T18:47:47.050Z,32.30
2017-11-16T18:50:13.473Z,30.30
2017-11-16T18:52:39.823Z,29.33
2017-11-16T18:55:07.066Z,30.13
2017-11-16T18:57:33.495Z,34.17
2017-11-16T19:00:00.135Z,34.90
2017-11-16T19:02:27.454Z,47.97
2017-11-16T19:04:53.874Z,42.60
2017-11-16T19:07:20.235Z,32.17
2017-11-16T19:09:46.607Z,34.07
2017-11-16T19:12:13.804Z,32.87
2017-11-16T19:14:40.383Z,30.33
2017-11-16T19:17:06.762Z,33.60
2017-11-16T19:19:33.318Z,32.43
2017-11-16T19:22:00.771Z,28.63
2017-11-16T19:24:27.224Z,27.90
2017-11-16T19:26:53.711Z,25.20
2017-11-16T19:29:20.138Z,44.40
2017-11-16T19:31:46.843Z,35.03
2017-11-16T19:34:14.076Z,30.50
2017-11-16T19:36:40.891Z,29.80
2017-11-16T19:39:07.422Z,28.73
2017-11-16T19:41:33.993Z,28.77
2017-11-16T19:44:00.394Z,29.20
2017-11-16T19:46:26.797Z,27.47
2017-11-16T19:48:54.938Z,29.87
2017-11-16T19:51:21.310Z,30.37
2017-11-16T19:53:48.485Z,34.77
2017-11-16T19:56:14.918Z,35.43
2017-11-16T19:58:41.377Z,38.87
2017-11-16T20:01:08.341Z,29.73
2017-11-16T20:03:34.752Z,30.30
2017-11-16T20:06:01.233Z,29.83
2017-11-16T20:08:27.595Z,26.60
2017-11-16T20:10:54.014Z,29.97
2017-11-16T20:13:20.390Z,25.27
2017-11-16T20:15:46.862Z,25.67
2017-11-16T20:18:14.225Z,26.50
2017-11-16T20:20:40.586Z,31.00
2017-11-16T20:23:06.930Z,25.60
2017-11-16T20:25:33.346Z,28.30
2017-11-16T20:28:01.185Z,23.73
2017-11-16T20:30:27.548Z,21.83
2017-11-16T20:32:54.033Z,32.73
2017-11-16T20:35:20.701Z,36.30
2017-11-16T20:37:59.127Z,41.07
2017-11-16T20:40:36.538Z,21.73
2017-11-16T20:43:09.033Z,22.37
2017-11-16T20:58:53.202Z,29.43
2017-11-16T21:01:19.593Z,28.53
2017-11-16T21:03:45.954Z,32.47
2017-11-16T21:06:12.350Z,31.23
2017-11-16T21:08:38.725Z,27.70
2017-11-16T21:11:05.060Z,30.13
2017-11-16T21:13:31.775Z,27.27
2017-11-16T21:15:58.132Z,25.93
2017-11-16T21:18:24.502Z,21.67
2017-11-16T21:20:50.999Z,26.50
2017-11-16T21:23:17.350Z,21.90
2017-11-16T21:25:43.690Z,19.37
2017-11-16T21:28:10.073Z,17.30
2017-11-16T21:30:36.424Z,17.90
2017-11-16T21:33:02.779Z,16.43
2017-11-16T21:35:29.161Z,17.73
2017-11-16T21:37:55.506Z,18.30
2017-11-16T21:40:21.843Z,15.53
2017-11-16T21:42:48.281Z,17.87
2017-11-16T21:45:14.680Z,18.77
2017-11-16T21:47:41.086Z,19.33
2017-11-16T21:50:07.481Z,17.47
2017-11-16T21:52:33.834Z,18.47
2017-11-16T21:55:00.169Z,18.00
2017-11-16T21:57:26.673Z,15.60
2017-11-16T21:59:53.020Z,13.43
2017-11-16T22:02:19.371Z,14.10
2017-11-16T22:04:45.811Z,12.97
2017-11-16T22:07:12.166Z,12.40
2017-11-16T22:09:38.514Z,11.63
2017-11-16T22:12:04.920Z,12.83
2017-11-16T22:14:31.285Z,17.17
2017-11-16T22:16:57.630Z,12.83
2017-11-16T22:19:24.038Z,12.40
2017-11-16T22:21:50.499Z,11.90
2017-11-16T22:24:16.909Z,13.63
2017-11-16T22:26:43.314Z,13.00
2017-11-16T22:29:09.670Z,11.03
2017-11-16T22:31:36.026Z,12.20
2017-11-16T22:34:02.493Z,15.70
2017-11-16T22:36:28.973Z,15.00
2017-11-16T22:38:55.357Z,13.13
2017-11-16T22:41:21.801Z,14.63
2017-11-16T22:43:48.141Z,15.77
2017-11-16T22:46:14.678Z,15.23
2017-11-16T22:48:41.048Z,15.00
2017-11-16T22:51:07.397Z,17.00
2017-11-16T22:53:33.749Z,19.87
2017-11-16T22:56:00.159Z,17.37
2017-11-16T22:58:26.532Z,15.93
2017-11-16T23:00:52.880Z,17.63
2017-11-16T23:03:19.322Z,17.90
2017-11-16T23:05:45.787Z,16.03
2017-11-16T23:08:12.134Z,15.53
2017-11-16T23:10:38.526Z,15.93
2017-11-16T23:13:04.893Z,14.20
2017-11-16T23:15:31.261Z,13.90
2017-11-16T23:17:57.661Z,16.97
2017-11-16T23:20:24.013Z,16.13
2017-11-16T23:22:50.522Z,19.47
2017-11-16T23:25:16.978Z,21.17
2017-11-16T23:27:43.353Z,19.03
2017-11-16T23:30:09.813Z,18.97
2017-11-16T23:32:36.210Z,20.20
2017-11-16T23:35:02.558Z,17.70
2017-11-16T23:37:28.906Z,19.03
2017-11-16T23:39:55.312Z,20.63
2017-11-16T23:42:21.648Z,20.97
2017-11-16T23:44:48.002Z,19.33
2017-11-16T23:47:14.374Z,20.47
2017-11-16T23:49:40.760Z,23.83
2017-11-16T23:52:07.117Z,21.00
2017-11-16T23:54:33.636Z,24.67
2017-11-16T23:56:59.986Z,19.83
2017-11-16T23:59:26.382Z,20.23
